Airfield :
LOGIN :

Register | Disclaimer

   EN    FR    IT 

 










Legend :    VFR   Marginal VFR   IFR   Intensive IFR   Very Intensive IFR
Visi :
Ceiling :
>= 8 km
>= 3000ft
5 to 8 km
1000 to 3000 ft
1500m to 5 km
500 to 1000 ft
800 to 1500m
200 to 500 ft
< 800m
< 200 ft
Symbols :   Thunderstorms  Fog  Heavy snow  Heavy precipitations  Wind > 20 kt
SIGMETs :     Misc.  Thunderstorms  Icing  Turbulence  Mountain Waves  Volcanic Ashes







- Airport Elevation : 84 ft
- Download approach charts


LFBC - Cazaux

CURRENT METAR :
  • 262200Z AUTO 31009KT 6000 +RADZ SCT007 BKN013 BKN021 13/12 Q1020

EXPIRED METARs :
  • 262130Z AUTO 29004KT 260V320 9999 FEW015 SCT022 BKN029 15/12 Q1020
  • 262100Z AUTO 29005KT 270V330 9999 SCT015 BKN022 OVC031 15/12 Q1020
  • 262030Z AUTO 29007KT 9999 FEW016 OVC031 15/12 Q1020
  • 262000Z AUTO 29008KT 260V320 9999 SCT017 OVC027 15/12 Q1020
  • 261930Z AUTO 29006KT 250V340 9999 FEW016 OVC030 15/12 Q1019

TAF TAF LFBC
Valid from the 26 at 09:00 until the 27 at 09:00 UTC


260800Z 2609/2709 29008KT 9999 SCT015 BKN030
BECMG 2621/2623 BKN010
TEMPO 2623/2709 3000 RADZ BKN005 BKN008
No reported NOTAMs for that airfield.



MET'MAP, your aeronautical weather chart ! - Copyright ORBIFLY December 2007 - Disclaimer

ORBIFLY MET'MAP TEAM :

Programming & Development : Alexandra Zaïnal
Concept & Development : Baudouin d'Aumeries
Co-Development & Prog : Marc-Olivier Méhu
Technical & hardware support : Manuel Goepfert

Contact : metmap@orbifly.com




SOURCES & CREDITS :

   NOAA